createdAt,value
2023-01-05T00:01:47.737Z,66.82
2023-01-05T00:04:54.935Z,66.81
2023-01-05T00:08:02.097Z,66.88
2023-01-05T00:11:32.612Z,66.47
2023-01-05T00:14:58.426Z,66.96
2023-01-05T00:18:24.152Z,66.78
2023-01-05T00:21:49.693Z,66.54
2023-01-05T00:25:12.950Z,65.58
2023-01-05T00:28:20.324Z,65.11
2023-01-05T00:31:27.610Z,65.86
2023-01-05T00:34:34.935Z,65.71
2023-01-05T00:37:42.353Z,65.53
2023-01-05T00:40:49.912Z,64.02
2023-01-05T00:43:57.040Z,65.55
2023-01-05T00:47:04.232Z,64.68
2023-01-05T00:50:15.969Z,64.57
2023-01-05T00:53:23.254Z,65.33
2023-01-05T00:56:30.420Z,65.39
2023-01-05T00:59:37.534Z,65.88
2023-01-05T01:02:45.289Z,65.37
2023-01-05T01:05:59.521Z,65.02
2023-01-05T01:09:06.648Z,65.64
2023-01-05T01:12:13.880Z,65.64
2023-01-05T01:15:21.173Z,65.76
2023-01-05T01:18:28.301Z,65.88
2023-01-05T01:21:35.572Z,65.15
2023-01-05T01:24:42.794Z,64.84
2023-01-05T01:27:49.927Z,64.14
2023-01-05T01:30:58.367Z,64.66
2023-01-05T01:34:05.748Z,64.69
2023-01-05T01:37:13.098Z,64.66
2023-01-05T01:40:20.277Z,65.05
2023-01-05T01:43:50.741Z,65.52
2023-01-05T01:46:57.896Z,64.31
2023-01-05T01:50:11.294Z,64.82
2023-01-05T01:53:22.749Z,65.49
2023-01-05T01:56:37.332Z,65.21
2023-01-05T01:59:44.964Z,64.59
2023-01-05T02:02:54.661Z,65.51
2023-01-05T02:06:01.903Z,65.29
2023-01-05T02:09:09.177Z,65.60
2023-01-05T02:12:26.277Z,65.20
2023-01-05T02:15:51.536Z,65.12
2023-01-05T02:19:27.381Z,64.76
2023-01-05T02:22:34.484Z,64.74
2023-01-05T02:26:03.680Z,65.47
2023-01-05T02:29:33.395Z,65.57
2023-01-05T02:32:47.680Z,65.07
2023-01-05T02:36:10.276Z,64.28
2023-01-05T02:39:21.210Z,64.72
2023-01-05T02:42:30.849Z,64.89
2023-01-05T02:45:38.050Z,64.27
2023-01-05T02:48:48.194Z,64.24
2023-01-05T02:51:57.149Z,63.84
2023-01-05T02:55:08.266Z,63.98
2023-01-05T02:58:31.651Z,63.60
2023-01-05T03:01:46.707Z,64.28
2023-01-05T03:04:58.312Z,63.85
2023-01-05T03:08:10.551Z,64.71
2023-01-05T03:11:36.161Z,63.75
2023-01-05T03:14:48.744Z,63.64
2023-01-05T03:17:59.182Z,64.09
2023-01-05T03:21:06.545Z,64.56
2023-01-05T03:24:32.381Z,63.81
2023-01-05T03:27:58.237Z,64.13
2023-01-05T03:31:38.666Z,64.43
2023-01-05T03:35:29.737Z,64.34
2023-01-05T03:38:42.438Z,64.33
2023-01-05T03:41:49.705Z,65.00
2023-01-05T03:44:56.940Z,65.39
2023-01-05T03:48:04.380Z,66.99
2023-01-05T03:51:11.559Z,66.34
2023-01-05T03:54:18.691Z,66.75
2023-01-05T03:57:25.834Z,66.13
2023-01-05T04:00:32.980Z,66.87
2023-01-05T04:03:41.396Z,66.71
2023-01-05T04:06:48.661Z,67.36
2023-01-05T04:09:55.824Z,67.60
2023-01-05T04:13:03.001Z,67.83
2023-01-05T04:16:10.189Z,71.09
2023-01-05T04:19:17.456Z,72.10
2023-01-05T04:22:27.370Z,73.61
2023-01-05T04:25:34.771Z,73.52
2023-01-05T04:28:41.962Z,74.89
2023-01-05T04:31:49.080Z,73.91
2023-01-05T04:34:56.233Z,74.55
2023-01-05T04:38:03.425Z,74.25
2023-01-05T04:41:11.226Z,74.88
2023-01-05T04:44:18.382Z,74.88
2023-01-05T04:47:25.512Z,73.51
2023-01-05T04:50:32.791Z,74.55
2023-01-05T04:53:40.005Z,74.68
2023-01-05T04:56:47.163Z,74.45
2023-01-05T04:59:54.303Z,73.01
2023-01-05T05:03:02.381Z,74.25
2023-01-05T05:06:09.839Z,73.42
2023-01-05T05:09:16.942Z,73.50
2023-01-05T05:12:24.130Z,73.81
2023-01-05T05:15:31.284Z,73.32
2023-01-05T05:18:38.421Z,73.30
2023-01-05T05:21:45.918Z,72.79
2023-01-05T05:24:53.104Z,73.24
2023-01-05T05:28:00.239Z,73.25
2023-01-05T05:31:07.473Z,73.43
2023-01-05T05:34:14.797Z,73.25
2023-01-05T05:37:21.977Z,74.89
2023-01-05T05:40:29.250Z,74.93
2023-01-05T05:43:36.510Z,74.86
2023-01-05T05:46:43.748Z,75.01
2023-01-05T05:49:51.062Z,74.61
2023-01-05T05:52:58.287Z,74.00
2023-01-05T05:56:05.770Z,74.49
2023-01-05T05:59:13.178Z,74.17
2023-01-05T06:02:20.485Z,73.30
2023-01-05T06:05:28.660Z,74.32
2023-01-05T06:08:35.873Z,76.30
2023-01-05T06:11:43.013Z,76.65
2023-01-05T06:14:50.590Z,76.27
2023-01-05T06:17:57.734Z,76.09
2023-01-05T06:21:05.139Z,75.47
2023-01-05T06:24:12.289Z,75.38
2023-01-05T06:27:19.460Z,76.13
2023-01-05T06:30:27.337Z,76.13
2023-01-05T06:33:34.454Z,77.02
2023-01-05T06:36:41.681Z,77.37
2023-01-05T06:39:48.927Z,77.46
2023-01-05T06:42:56.197Z,77.34
2023-01-05T06:46:03.523Z,77.87
2023-01-05T06:49:12.167Z,78.33
2023-01-05T06:52:19.350Z,77.38
2023-01-05T06:55:26.613Z,78.28
2023-01-05T06:58:33.794Z,77.96
2023-01-05T07:01:41.164Z,78.47
2023-01-05T07:04:48.401Z,79.35
2023-01-05T07:07:55.685Z,80.26
2023-01-05T07:11:02.871Z,79.18
2023-01-05T07:14:10.419Z,79.98
2023-01-05T07:17:17.707Z,79.64
2023-01-05T07:20:24.857Z,78.74
2023-01-05T07:23:32.058Z,79.03
2023-01-05T07:26:39.382Z,77.97
2023-01-05T07:29:46.537Z,77.58
2023-01-05T07:32:57.869Z,78.83
2023-01-05T07:36:05.561Z,78.59
2023-01-05T07:39:12.852Z,78.55
2023-01-05T07:42:20.005Z,78.07
2023-01-05T07:45:27.267Z,78.61
2023-01-05T07:48:34.512Z,77.82
2023-01-05T07:51:41.718Z,77.94
2023-01-05T07:54:48.865Z,78.63
2023-01-05T07:57:56.008Z,77.85
2023-01-05T08:01:05.195Z,79.70
2023-01-05T08:04:12.452Z,80.05
2023-01-05T08:07:19.740Z,78.31
2023-01-05T08:10:29.895Z,77.72
2023-01-05T08:13:55.691Z,78.56
2023-01-05T08:17:02.925Z,78.19
2023-01-05T08:20:10.485Z,79.36
2023-01-05T08:23:25.226Z,79.59
2023-01-05T08:26:33.793Z,79.63
2023-01-05T08:29:41.037Z,79.80
2023-01-05T08:32:48.327Z,79.38
2023-01-05T08:35:55.555Z,80.22
2023-01-05T08:39:02.756Z,79.88
2023-01-05T08:42:09.930Z,79.90
2023-01-05T08:45:18.021Z,79.26
2023-01-05T08:48:25.207Z,78.48
2023-01-05T08:51:32.548Z,79.31
2023-01-05T08:54:39.735Z,78.60
2023-01-05T08:57:46.867Z,77.90
2023-01-05T09:00:54.129Z,78.36
2023-01-05T09:04:01.319Z,79.85
2023-01-05T09:07:08.486Z,79.05
2023-01-05T09:10:15.971Z,77.85
2023-01-05T09:13:23.153Z,79.12
2023-01-05T09:20:03.216Z,78.89
2023-01-05T09:23:10.432Z,79.24
2023-01-05T09:26:18.024Z,79.20
2023-01-05T09:29:25.323Z,78.59
2023-01-05T09:32:32.598Z,78.26
2023-01-05T09:35:39.754Z,77.68
2023-01-05T09:38:50.818Z,78.13
2023-01-05T09:42:02.010Z,77.55
2023-01-05T09:45:11.941Z,76.33
2023-01-05T09:48:20.072Z,77.51
2023-01-05T09:51:28.342Z,77.27
2023-01-05T09:54:37.008Z,76.40
2023-01-05T09:57:54.909Z,74.78
2023-01-05T10:01:10.591Z,76.09
2023-01-05T10:04:26.650Z,75.90
2023-01-05T10:07:48.097Z,75.08
2023-01-05T10:11:19.878Z,75.56
2023-01-05T10:14:40.637Z,75.01
2023-01-05T10:17:47.984Z,73.40
2023-01-05T10:21:07.507Z,72.70
2023-01-05T10:24:31.349Z,72.83
2023-01-05T10:27:43.625Z,72.10
2023-01-05T10:31:02.041Z,72.09
2023-01-05T10:34:31.548Z,71.60
2023-01-05T10:37:41.720Z,70.72
2023-01-05T10:41:29.855Z,70.85
2023-01-05T10:44:42.970Z,70.00
2023-01-05T10:47:50.616Z,70.78
2023-01-05T10:50:57.954Z,71.60
2023-01-05T10:54:05.707Z,70.68
2023-01-05T10:57:34.030Z,69.04
2023-01-05T11:00:42.942Z,69.52
2023-01-05T11:07:21.138Z,69.00
2023-01-05T11:10:33.290Z,67.53
2023-01-05T11:13:43.034Z,68.10
2023-01-05T11:16:53.504Z,67.48
2023-01-05T11:20:01.177Z,66.89
2023-01-05T11:23:35.779Z,68.12
2023-01-05T11:26:57.024Z,66.40
2023-01-05T11:30:16.484Z,67.46
2023-01-05T11:33:26.136Z,66.17
2023-01-05T11:36:33.447Z,67.16
2023-01-05T11:39:46.795Z,65.96
2023-01-05T11:42:54.046Z,65.20
2023-01-05T11:46:03.938Z,65.26
2023-01-05T11:49:11.333Z,65.70
2023-01-05T11:52:34.667Z,65.17
2023-01-05T11:55:41.934Z,64.25
2023-01-05T11:58:51.018Z,63.41
2023-01-05T12:02:16.571Z,65.17
2023-01-05T12:05:49.919Z,63.59
2023-01-05T12:09:32.702Z,63.69
2023-01-05T12:12:44.786Z,63.04
2023-01-05T12:16:10.363Z,63.33
2023-01-05T12:19:39.684Z,65.33
2023-01-05T12:23:14.302Z,63.42
2023-01-05T12:27:11.047Z,64.58
2023-01-05T12:31:59.864Z,63.77
2023-01-05T12:34:40.256Z,64.92
2023-01-05T12:38:22.943Z,65.75
2023-01-05T12:42:08.514Z,64.63
2023-01-05T12:45:31.286Z,65.01
2023-01-05T12:48:43.035Z,64.35
2023-01-05T12:52:01.106Z,63.43
2023-01-05T12:55:25.816Z,64.23
2023-01-05T12:58:37.313Z,63.19
2023-01-05T13:01:52.357Z,62.89
2023-01-05T13:05:09.462Z,62.66
2023-01-05T13:08:32.384Z,63.45
2023-01-05T13:12:07.007Z,62.74
2023-01-05T13:15:14.991Z,63.53
2023-01-05T13:18:24.645Z,62.88
2023-01-05T13:21:32.291Z,63.51
2023-01-05T13:24:49.280Z,63.98
2023-01-05T13:27:56.529Z,62.57
2023-01-05T13:31:36.218Z,60.59
2023-01-05T13:35:01.411Z,61.24
2023-01-05T13:38:46.034Z,62.10
2023-01-05T13:42:23.352Z,62.75
2023-01-05T13:45:48.796Z,62.22
2023-01-05T13:49:15.315Z,62.86
2023-01-05T13:52:56.593Z,63.42
2023-01-05T13:56:15.853Z,62.14
2023-01-05T13:59:39.806Z,63.00
2023-01-05T14:03:14.258Z,62.33
2023-01-05T14:06:25.333Z,63.58
2023-01-05T14:09:47.898Z,62.89
2023-01-05T14:12:55.350Z,62.89
2023-01-05T14:16:35.221Z,62.95
2023-01-05T14:19:50.884Z,62.52
2023-01-05T14:22:58.296Z,61.50
2023-01-05T14:26:09.373Z,61.17
2023-01-05T14:29:45.399Z,60.28
2023-01-05T14:32:53.551Z,60.41
2023-01-05T14:36:04.158Z,61.70
2023-01-05T14:39:20.364Z,61.58
2023-01-05T14:42:34.395Z,61.62
2023-01-05T14:45:41.622Z,60.52
2023-01-05T14:49:05.209Z,60.59
2023-01-05T14:52:18.296Z,60.67
2023-01-05T14:55:39.144Z,61.29
2023-01-05T14:58:53.370Z,60.21
2023-01-05T15:02:04.367Z,59.80
2023-01-05T15:05:15.786Z,59.66
2023-01-05T15:08:35.592Z,60.44
2023-01-05T15:12:05.455Z,60.70
2023-01-05T15:15:18.497Z,60.66
2023-01-05T15:18:53.400Z,60.34
2023-01-05T15:22:36.438Z,61.33
2023-01-05T15:26:07.791Z,62.44
2023-01-05T15:29:27.668Z,63.82
2023-01-05T15:32:40.568Z,63.08
2023-01-05T15:35:53.120Z,63.69
2023-01-05T15:39:00.405Z,63.83
2023-01-05T15:42:09.082Z,64.22
2023-01-05T15:45:24.561Z,62.69
2023-01-05T15:48:38.496Z,61.75
2023-01-05T15:51:53.482Z,63.12
2023-01-05T15:55:04.455Z,62.65
2023-01-05T15:58:16.148Z,63.46
2023-01-05T16:07:21.997Z,62.55
2023-01-05T16:10:50.847Z,62.30
2023-01-05T16:14:02.219Z,60.85
2023-01-05T16:16:51.315Z,60.38
2023-01-05T16:19:23.830Z,60.13
2023-01-05T16:22:06.672Z,60.32
2023-01-05T16:24:42.689Z,59.37
2023-01-05T16:27:11.551Z,59.24
2023-01-05T16:29:46.034Z,59.14
2023-01-05T16:32:36.810Z,58.73
2023-01-05T16:35:33.049Z,60.91
2023-01-05T16:38:09.581Z,61.03
2023-01-05T16:40:39.058Z,60.11
2023-01-05T16:43:17.422Z,60.65
2023-01-05T16:45:44.012Z,60.42
2023-01-05T16:48:36.811Z,61.27
2023-01-05T16:51:05.676Z,60.40
2023-01-05T16:53:33.147Z,60.50
2023-01-05T16:56:00.787Z,60.17
2023-01-05T16:58:30.400Z,60.84
2023-01-05T17:01:09.705Z,60.86
2023-01-05T17:03:36.221Z,60.67
2023-01-05T17:06:03.107Z,62.41
2023-01-05T17:08:31.909Z,62.03
2023-01-05T17:10:59.527Z,62.83
2023-01-05T17:13:32.807Z,64.23
2023-01-05T17:15:59.475Z,64.37
2023-01-05T17:18:28.615Z,65.48
2023-01-05T17:20:57.027Z,64.72
2023-01-05T17:23:30.235Z,64.45
2023-01-05T17:26:00.056Z,63.92
2023-01-05T17:28:26.602Z,63.99
2023-01-05T17:30:53.440Z,64.61
2023-01-05T17:33:20.070Z,64.37
2023-01-05T17:38:15.184Z,64.42
2023-01-05T17:40:42.467Z,63.98
2023-01-05T17:43:09.398Z,64.18
2023-01-05T17:45:38.530Z,63.01
2023-01-05T17:48:05.182Z,61.67
2023-01-05T17:50:33.314Z,62.94
2023-01-05T17:53:01.645Z,63.14
2023-01-05T17:55:29.480Z,64.95
2023-01-05T17:57:57.723Z,63.73
2023-01-05T18:00:26.192Z,63.48
2023-01-05T18:02:54.054Z,64.08
2023-01-05T18:05:21.734Z,62.87
2023-01-05T18:07:48.934Z,63.92
2023-01-05T18:10:18.592Z,63.47
2023-01-05T18:12:45.246Z,61.88
2023-01-05T18:15:12.791Z,61.72
2023-01-05T18:17:39.367Z,61.55
2023-01-05T18:20:06.960Z,62.04
2023-01-05T18:22:33.805Z,61.80
2023-01-05T18:25:00.557Z,65.48
2023-01-05T18:27:27.101Z,65.07
2023-01-05T18:29:53.720Z,63.15
2023-01-05T18:32:20.265Z,64.73
2023-01-05T18:34:46.836Z,63.17
2023-01-05T18:37:21.525Z,62.45
2023-01-05T18:39:48.564Z,63.93
2023-01-05T18:42:15.311Z,63.80
2023-01-05T18:44:42.098Z,65.45
2023-01-05T18:47:11.051Z,65.33
2023-01-05T18:49:37.791Z,65.76
2023-01-05T18:52:04.693Z,65.24
2023-01-05T18:54:31.296Z,65.31
2023-01-05T18:56:58.066Z,66.53
2023-01-05T18:59:25.461Z,66.81
2023-01-05T19:01:52.153Z,68.24
2023-01-05T19:04:18.781Z,68.34
2023-01-05T19:06:45.436Z,69.83
2023-01-05T19:09:13.308Z,70.31
2023-01-05T19:11:44.885Z,68.20
2023-01-05T19:14:11.575Z,69.58
2023-01-05T19:16:38.486Z,70.57
2023-01-05T19:19:09.250Z,68.80
2023-01-05T19:21:38.511Z,70.59
2023-01-05T19:24:07.500Z,70.33
2023-01-05T19:26:36.167Z,71.01
2023-01-05T19:29:04.007Z,72.24
2023-01-05T19:31:30.646Z,73.79
2023-01-05T19:34:00.116Z,73.29
2023-01-05T19:36:35.624Z,73.43
2023-01-05T19:39:07.562Z,72.24
2023-01-05T19:41:35.426Z,72.19
2023-01-05T19:44:01.921Z,72.68
2023-01-05T19:46:28.798Z,72.83
2023-01-05T19:48:56.529Z,73.46
2023-01-05T19:51:27.576Z,73.12
2023-01-05T19:53:59.177Z,72.69
2023-01-05T19:56:28.179Z,72.08
2023-01-05T19:58:57.387Z,72.17
2023-01-05T20:01:25.660Z,74.23
2023-01-05T20:03:54.354Z,73.52
2023-01-05T20:06:26.255Z,73.51
2023-01-05T20:08:54.427Z,73.18
2023-01-05T20:11:36.345Z,74.79
2023-01-05T20:14:05.031Z,74.55
2023-01-05T20:16:33.381Z,72.75
2023-01-05T20:19:00.504Z,74.05
2023-01-05T20:21:27.317Z,74.35
2023-01-05T20:23:53.819Z,74.85
2023-01-05T20:26:22.153Z,75.42
2023-01-05T20:28:49.477Z,75.23
2023-01-05T20:31:23.848Z,74.00
2023-01-05T20:33:51.425Z,74.94
2023-01-05T20:36:18.096Z,75.24
2023-01-05T20:38:45.043Z,75.27
2023-01-05T20:41:23.413Z,74.68
2023-01-05T20:43:51.252Z,74.11
2023-01-05T20:46:21.463Z,74.60
2023-01-05T20:48:52.611Z,74.38
2023-01-05T20:51:21.164Z,73.77
2023-01-05T20:53:48.748Z,74.58
2023-01-05T20:56:18.322Z,74.07
2023-01-05T20:58:46.365Z,74.72
2023-01-05T21:01:14.089Z,75.70
2023-01-05T21:03:41.522Z,75.71
2023-01-05T21:06:10.741Z,75.37
2023-01-05T21:08:37.709Z,75.03
2023-01-05T21:11:05.817Z,73.98
2023-01-05T21:13:33.305Z,75.93
2023-01-05T21:16:03.672Z,76.42
2023-01-05T21:18:33.748Z,78.49
2023-01-05T21:21:00.236Z,78.20
2023-01-05T21:23:26.718Z,77.97
2023-01-05T21:26:06.583Z,78.86
2023-01-05T21:28:39.149Z,79.06
2023-01-05T21:31:08.504Z,79.01
2023-01-05T21:33:36.320Z,78.76
2023-01-05T21:36:04.380Z,77.81
2023-01-05T21:39:01.035Z,76.89
2023-01-05T21:41:17.674Z,79.15
2023-01-05T21:43:44.415Z,78.31
2023-01-05T21:46:12.020Z,77.17
2023-01-05T21:48:38.982Z,76.45
2023-01-05T21:51:24.300Z,76.71
2023-01-05T21:54:09.159Z,76.31
2023-01-05T21:56:39.430Z,77.79
2023-01-05T21:59:09.393Z,76.50
2023-01-05T22:01:38.226Z,76.03
2023-01-05T22:04:05.370Z,75.49
2023-01-05T22:06:32.256Z,74.64
2023-01-05T22:08:58.934Z,75.47
2023-01-05T22:11:25.432Z,75.31
2023-01-05T22:13:52.033Z,76.47
2023-01-05T22:16:27.160Z,77.33
2023-01-05T22:18:53.975Z,77.15
2023-01-05T22:21:20.465Z,77.27
2023-01-05T22:23:47.061Z,77.57
2023-01-05T22:26:15.722Z,76.72
2023-01-05T22:28:43.800Z,77.33
2023-01-05T22:31:12.824Z,76.38
2023-01-05T22:33:41.423Z,77.09
2023-01-05T22:36:09.562Z,76.10
2023-01-05T22:38:37.566Z,74.17
2023-01-05T22:41:05.366Z,73.23
2023-01-05T22:43:32.177Z,74.79
2023-01-05T22:46:08.611Z,75.00
2023-01-05T22:48:36.879Z,77.00
2023-01-05T22:51:05.276Z,76.49
2023-01-05T22:53:32.173Z,75.24
2023-01-05T22:55:58.784Z,73.76
2023-01-05T22:58:25.718Z,74.19
2023-01-05T23:00:52.642Z,74.13
2023-01-05T23:03:20.853Z,75.58
2023-01-05T23:05:47.872Z,75.24
2023-01-05T23:08:14.445Z,76.64
2023-01-05T23:10:41.013Z,76.17
2023-01-05T23:13:07.601Z,76.43
2023-01-05T23:15:34.081Z,76.94
2023-01-05T23:18:00.813Z,75.06
2023-01-05T23:20:27.385Z,75.76
2023-01-05T23:22:53.988Z,77.28
2023-01-05T23:25:20.495Z,75.84
2023-01-05T23:27:47.010Z,76.26
2023-01-05T23:30:13.663Z,76.04
2023-01-05T23:32:40.107Z,77.12
2023-01-05T23:35:07.950Z,76.08
2023-01-05T23:37:34.666Z,75.29
2023-01-05T23:40:01.153Z,76.38
2023-01-05T23:42:46.229Z,75.66
2023-01-05T23:45:13.924Z,75.13
2023-01-05T23:47:40.583Z,75.17
2023-01-05T23:50:07.740Z,75.62
2023-01-05T23:52:34.474Z,76.03
2023-01-05T23:55:01.021Z,75.89
2023-01-05T23:57:29.934Z,74.65
2023-01-05T23:59:56.536Z,72.98
